sensor_id;sensor_type;location;lat;lon;timestamp;P1;durP1;ratioP1;P2;durP2;ratioP2
4391;SDS011;2210;51.938;8.488;2024-01-27T00:00:12;5.90;;;1.77;;
4391;SDS011;2210;51.938;8.488;2024-01-27T00:04:15;4.40;;;2.10;;
4391;SDS011;2210;51.938;8.488;2024-01-27T00:08:15;4.97;;;1.77;;
4391;SDS011;2210;51.938;8.488;2024-01-27T00:12:15;8.17;;;2.20;;
4391;SDS011;2210;51.938;8.488;2024-01-27T00:16:15;8.45;;;2.60;;
4391;SDS011;2210;51.938;8.488;2024-01-27T00:20:16;8.43;;;1.90;;
4391;SDS011;2210;51.938;8.488;2024-01-27T00:24:16;10.93;;;2.20;;
4391;SDS011;2210;51.938;8.488;2024-01-27T00:28:19;7.00;;;1.83;;
4391;SDS011;2210;51.938;8.488;2024-01-27T00:32:20;4.77;;;2.20;;
4391;SDS011;2210;51.938;8.488;2024-01-27T00:36:27;7.43;;;1.80;;
4391;SDS011;2210;51.938;8.488;2024-01-27T00:40:27;9.17;;;2.10;;
4391;SDS011;2210;51.938;8.488;2024-01-27T00:44:27;10.40;;;2.40;;
4391;SDS011;2210;51.938;8.488;2024-01-27T00:48:30;6.40;;;2.50;;
4391;SDS011;2210;51.938;8.488;2024-01-27T00:52:34;14.37;;;2.20;;
4391;SDS011;2210;51.938;8.488;2024-01-27T00:56:35;9.90;;;2.60;;
4391;SDS011;2210;51.938;8.488;2024-01-27T01:00:35;6.10;;;2.15;;
4391;SDS011;2210;51.938;8.488;2024-01-27T01:04:35;10.45;;;2.13;;
4391;SDS011;2210;51.938;8.488;2024-01-27T01:08:35;3.43;;;1.70;;
4391;SDS011;2210;51.938;8.488;2024-01-27T01:12:36;6.57;;;2.30;;
4391;SDS011;2210;51.938;8.488;2024-01-27T01:16:36;7.37;;;2.13;;
4391;SDS011;2210;51.938;8.488;2024-01-27T01:20:36;6.38;;;2.00;;
4391;SDS011;2210;51.938;8.488;2024-01-27T01:24:36;3.53;;;1.90;;
4391;SDS011;2210;51.938;8.488;2024-01-27T01:28:40;6.13;;;2.20;;
4391;SDS011;2210;51.938;8.488;2024-01-27T01:32:40;12.17;;;2.27;;
4391;SDS011;2210;51.938;8.488;2024-01-27T01:36:40;7.63;;;1.90;;
4391;SDS011;2210;51.938;8.488;2024-01-27T01:40:40;7.57;;;4.07;;
4391;SDS011;2210;51.938;8.488;2024-01-27T01:44:41;15.75;;;2.13;;
4391;SDS011;2210;51.938;8.488;2024-01-27T01:48:41;12.13;;;2.10;;
4391;SDS011;2210;51.938;8.488;2024-01-27T01:52:48;10.50;;;2.50;;
4391;SDS011;2210;51.938;8.488;2024-01-27T01:56:49;10.03;;;2.03;;
4391;SDS011;2210;51.938;8.488;2024-01-27T02:00:50;4.80;;;2.10;;
4391;SDS011;2210;51.938;8.488;2024-01-27T02:05:02;5.77;;;2.03;;
4391;SDS011;2210;51.938;8.488;2024-01-27T02:09:06;7.23;;;2.10;;
4391;SDS011;2210;51.938;8.488;2024-01-27T02:13:16;6.17;;;2.50;;
4391;SDS011;2210;51.938;8.488;2024-01-27T02:17:37;7.07;;;2.47;;
4391;SDS011;2210;51.938;8.488;2024-01-27T02:21:41;5.70;;;2.10;;
4391;SDS011;2210;51.938;8.488;2024-01-27T02:25:41;4.27;;;2.13;;
4391;SDS011;2210;51.938;8.488;2024-01-27T02:29:45;7.82;;;1.90;;
4391;SDS011;2210;51.938;8.488;2024-01-27T02:33:45;16.87;;;2.93;;
4391;SDS011;2210;51.938;8.488;2024-01-27T02:37:48;3.20;;;2.10;;
4391;SDS011;2210;51.938;8.488;2024-01-27T02:41:51;4.43;;;1.77;;
4391;SDS011;2210;51.938;8.488;2024-01-27T02:45:52;5.23;;;2.03;;
4391;SDS011;2210;51.938;8.488;2024-01-27T02:49:55;7.90;;;1.97;;
4391;SDS011;2210;51.938;8.488;2024-01-27T02:53:55;7.13;;;2.50;;
4391;SDS011;2210;51.938;8.488;2024-01-27T02:57:58;10.07;;;2.77;;
4391;SDS011;2210;51.938;8.488;2024-01-27T03:01:59;11.65;;;2.88;;
4391;SDS011;2210;51.938;8.488;2024-01-27T03:06:02;6.50;;;2.27;;
4391;SDS011;2210;51.938;8.488;2024-01-27T03:10:08;4.23;;;1.70;;
4391;SDS011;2210;51.938;8.488;2024-01-27T03:14:18;11.07;;;3.93;;
4391;SDS011;2210;51.938;8.488;2024-01-27T03:18:18;10.67;;;3.10;;
4391;SDS011;2210;51.938;8.488;2024-01-27T03:31:30;9.20;;;2.57;;
4391;SDS011;2210;51.938;8.488;2024-01-27T03:35:31;7.43;;;2.23;;
4391;SDS011;2210;51.938;8.488;2024-01-27T03:39:37;10.53;;;2.30;;
4391;SDS011;2210;51.938;8.488;2024-01-27T03:43:40;5.77;;;2.07;;
4391;SDS011;2210;51.938;8.488;2024-01-27T03:47:40;3.13;;;1.93;;
4391;SDS011;2210;51.938;8.488;2024-01-27T03:51:41;4.50;;;2.10;;
4391;SDS011;2210;51.938;8.488;2024-01-27T03:55:41;6.90;;;1.93;;
4391;SDS011;2210;51.938;8.488;2024-01-27T03:59:41;4.40;;;2.33;;
4391;SDS011;2210;51.938;8.488;2024-01-27T04:03:48;4.07;;;1.87;;
4391;SDS011;2210;51.938;8.488;2024-01-27T04:07:48;7.43;;;2.23;;
4391;SDS011;2210;51.938;8.488;2024-01-27T04:11:50;4.03;;;1.97;;
4391;SDS011;2210;51.938;8.488;2024-01-27T04:16:09;4.50;;;2.07;;
4391;SDS011;2210;51.938;8.488;2024-01-27T04:20:18;2.83;;;2.07;;
4391;SDS011;2210;51.938;8.488;2024-01-27T04:24:19;7.80;;;2.60;;
4391;SDS011;2210;51.938;8.488;2024-01-27T04:28:19;10.30;;;2.30;;
4391;SDS011;2210;51.938;8.488;2024-01-27T04:32:19;5.30;;;2.07;;
4391;SDS011;2210;51.938;8.488;2024-01-27T04:36:30;10.47;;;2.20;;
4391;SDS011;2210;51.938;8.488;2024-01-27T04:40:33;5.87;;;1.90;;
4391;SDS011;2210;51.938;8.488;2024-01-27T04:44:39;16.30;;;3.03;;
4391;SDS011;2210;51.938;8.488;2024-01-27T04:48:44;3.47;;;1.50;;
4391;SDS011;2210;51.938;8.488;2024-01-27T04:52:50;4.27;;;2.20;;
4391;SDS011;2210;51.938;8.488;2024-01-27T04:56:51;5.43;;;2.17;;
4391;SDS011;2210;51.938;8.488;2024-01-27T05:00:51;6.37;;;2.30;;
4391;SDS011;2210;51.938;8.488;2024-01-27T05:04:51;5.50;;;2.05;;
4391;SDS011;2210;51.938;8.488;2024-01-27T05:08:52;2.50;;;2.10;;
4391;SDS011;2210;51.938;8.488;2024-01-27T05:12:55;3.58;;;2.40;;
4391;SDS011;2210;51.938;8.488;2024-01-27T05:16:56;8.87;;;2.07;;
4391;SDS011;2210;51.938;8.488;2024-01-27T05:20:56;9.27;;;2.30;;
4391;SDS011;2210;51.938;8.488;2024-01-27T05:25:05;8.77;;;2.63;;
4391;SDS011;2210;51.938;8.488;2024-01-27T05:29:12;5.00;;;2.03;;
4391;SDS011;2210;51.938;8.488;2024-01-27T05:33:12;7.50;;;2.73;;
4391;SDS011;2210;51.938;8.488;2024-01-27T05:37:13;11.10;;;2.92;;
4391;SDS011;2210;51.938;8.488;2024-01-27T05:41:25;7.03;;;2.50;;
4391;SDS011;2210;51.938;8.488;2024-01-27T05:45:32;3.33;;;2.40;;
4391;SDS011;2210;51.938;8.488;2024-01-27T05:49:32;15.17;;;2.80;;
4391;SDS011;2210;51.938;8.488;2024-01-27T05:53:34;6.03;;;2.60;;
4391;SDS011;2210;51.938;8.488;2024-01-27T05:57:35;4.53;;;2.10;;
4391;SDS011;2210;51.938;8.488;2024-01-27T06:01:35;12.43;;;2.33;;
4391;SDS011;2210;51.938;8.488;2024-01-27T06:05:35;7.75;;;3.20;;
4391;SDS011;2210;51.938;8.488;2024-01-27T06:09:39;8.13;;;2.37;;
4391;SDS011;2210;51.938;8.488;2024-01-27T06:13:39;6.10;;;3.03;;
4391;SDS011;2210;51.938;8.488;2024-01-27T06:17:43;4.00;;;3.00;;
4391;SDS011;2210;51.938;8.488;2024-01-27T06:21:53;5.10;;;3.03;;
4391;SDS011;2210;51.938;8.488;2024-01-27T06:25:53;5.00;;;3.10;;
4391;SDS011;2210;51.938;8.488;2024-01-27T06:30:03;6.07;;;3.33;;
4391;SDS011;2210;51.938;8.488;2024-01-27T06:34:04;7.63;;;3.40;;
4391;SDS011;2210;51.938;8.488;2024-01-27T06:38:07;8.73;;;3.40;;
4391;SDS011;2210;51.938;8.488;2024-01-27T06:42:14;7.73;;;3.67;;
4391;SDS011;2210;51.938;8.488;2024-01-27T06:46:17;9.93;;;3.17;;
4391;SDS011;2210;51.938;8.488;2024-01-27T06:50:33;7.83;;;3.70;;
4391;SDS011;2210;51.938;8.488;2024-01-27T06:54:33;7.57;;;3.30;;
4391;SDS011;2210;51.938;8.488;2024-01-27T06:58:36;6.50;;;2.93;;
4391;SDS011;2210;51.938;8.488;2024-01-27T07:02:40;10.43;;;3.77;;
4391;SDS011;2210;51.938;8.488;2024-01-27T07:06:52;7.93;;;4.33;;
4391;SDS011;2210;51.938;8.488;2024-01-27T07:11:05;5.57;;;3.47;;
4391;SDS011;2210;51.938;8.488;2024-01-27T07:15:05;6.30;;;3.27;;
4391;SDS011;2210;51.938;8.488;2024-01-27T07:19:06;8.50;;;3.53;;
4391;SDS011;2210;51.938;8.488;2024-01-27T07:23:06;8.37;;;3.53;;
4391;SDS011;2210;51.938;8.488;2024-01-27T07:27:11;7.07;;;3.07;;
4391;SDS011;2210;51.938;8.488;2024-01-27T07:31:15;5.00;;;3.20;;
4391;SDS011;2210;51.938;8.488;2024-01-27T07:35:16;5.10;;;2.87;;
4391;SDS011;2210;51.938;8.488;2024-01-27T07:39:16;9.63;;;3.17;;
4391;SDS011;2210;51.938;8.488;2024-01-27T07:43:16;5.90;;;3.33;;
4391;SDS011;2210;51.938;8.488;2024-01-27T07:47:16;6.20;;;3.60;;
4391;SDS011;2210;51.938;8.488;2024-01-27T07:51:17;2.80;;;2.60;;
4391;SDS011;2210;51.938;8.488;2024-01-27T07:55:17;9.03;;;3.87;;
4391;SDS011;2210;51.938;8.488;2024-01-27T07:59:17;9.23;;;3.20;;
4391;SDS011;2210;51.938;8.488;2024-01-27T08:03:18;7.23;;;3.27;;
4391;SDS011;2210;51.938;8.488;2024-01-27T08:07:18;7.37;;;4.37;;
4391;SDS011;2210;51.938;8.488;2024-01-27T08:11:19;7.72;;;4.50;;
4391;SDS011;2210;51.938;8.488;2024-01-27T08:15:19;5.85;;;4.35;;
4391;SDS011;2210;51.938;8.488;2024-01-27T08:19:19;6.50;;;4.43;;
4391;SDS011;2210;51.938;8.488;2024-01-27T08:23:26;10.80;;;4.80;;
4391;SDS011;2210;51.938;8.488;2024-01-27T08:27:29;9.77;;;4.83;;
4391;SDS011;2210;51.938;8.488;2024-01-27T08:31:30;18.97;;;5.20;;
4391;SDS011;2210;51.938;8.488;2024-01-27T08:35:30;10.23;;;5.67;;
4391;SDS011;2210;51.938;8.488;2024-01-27T08:39:30;12.00;;;5.53;;
4391;SDS011;2210;51.938;8.488;2024-01-27T08:43:30;7.20;;;4.53;;
4391;SDS011;2210;51.938;8.488;2024-01-27T08:47:37;12.82;;;5.20;;
4391;SDS011;2210;51.938;8.488;2024-01-27T08:51:40;13.67;;;6.23;;
4391;SDS011;2210;51.938;8.488;2024-01-27T08:55:53;8.63;;;5.23;;
4391;SDS011;2210;51.938;8.488;2024-01-27T08:59:59;11.63;;;5.90;;
4391;SDS011;2210;51.938;8.488;2024-01-27T09:03:59;7.87;;;5.33;;
4391;SDS011;2210;51.938;8.488;2024-01-27T09:08:03;11.93;;;5.40;;
4391;SDS011;2210;51.938;8.488;2024-01-27T09:12:16;8.97;;;4.67;;
4391;SDS011;2210;51.938;8.488;2024-01-27T09:16:16;8.87;;;4.50;;
4391;SDS011;2210;51.938;8.488;2024-01-27T09:20:17;10.80;;;4.60;;
4391;SDS011;2210;51.938;8.488;2024-01-27T09:24:20;6.63;;;5.00;;
4391;SDS011;2210;51.938;8.488;2024-01-27T09:28:23;6.40;;;4.40;;
4391;SDS011;2210;51.938;8.488;2024-01-27T09:32:23;8.87;;;4.47;;
4391;SDS011;2210;51.938;8.488;2024-01-27T09:36:27;6.00;;;4.20;;
4391;SDS011;2210;51.938;8.488;2024-01-27T09:40:27;5.50;;;4.27;;
4391;SDS011;2210;51.938;8.488;2024-01-27T09:44:28;13.53;;;4.77;;
4391;SDS011;2210;51.938;8.488;2024-01-27T09:48:29;15.13;;;4.70;;
4391;SDS011;2210;51.938;8.488;2024-01-27T09:52:36;10.60;;;4.90;;
4391;SDS011;2210;51.938;8.488;2024-01-27T09:56:39;7.53;;;4.90;;
4391;SDS011;2210;51.938;8.488;2024-01-27T10:00:40;11.80;;;4.50;;
4391;SDS011;2210;51.938;8.488;2024-01-27T10:04:47;12.43;;;4.53;;
4391;SDS011;2210;51.938;8.488;2024-01-27T10:08:53;8.33;;;4.83;;
4391;SDS011;2210;51.938;8.488;2024-01-27T10:12:54;6.60;;;4.20;;
4391;SDS011;2210;51.938;8.488;2024-01-27T10:16:58;9.77;;;4.50;;
4391;SDS011;2210;51.938;8.488;2024-01-27T10:21:15;9.07;;;4.00;;
4391;SDS011;2210;51.938;8.488;2024-01-27T10:25:16;9.17;;;4.97;;
4391;SDS011;2210;51.938;8.488;2024-01-27T10:29:17;9.40;;;5.23;;
4391;SDS011;2210;51.938;8.488;2024-01-27T10:33:17;9.20;;;5.10;;
4391;SDS011;2210;51.938;8.488;2024-01-27T10:37:26;13.50;;;4.73;;
4391;SDS011;2210;51.938;8.488;2024-01-27T10:41:28;13.77;;;4.20;;
4391;SDS011;2210;51.938;8.488;2024-01-27T10:45:49;13.17;;;4.73;;
4391;SDS011;2210;51.938;8.488;2024-01-27T10:49:50;6.50;;;3.60;;
4391;SDS011;2210;51.938;8.488;2024-01-27T10:54:01;5.87;;;3.63;;
4391;SDS011;2210;51.938;8.488;2024-01-27T10:58:02;5.57;;;3.50;;
4391;SDS011;2210;51.938;8.488;2024-01-27T11:02:18;5.40;;;3.37;;
4391;SDS011;2210;51.938;8.488;2024-01-27T11:06:19;10.63;;;3.40;;
4391;SDS011;2210;51.938;8.488;2024-01-27T11:10:31;6.43;;;4.07;;
4391;SDS011;2210;51.938;8.488;2024-01-27T11:14:35;12.17;;;4.87;;
4391;SDS011;2210;51.938;8.488;2024-01-27T11:18:35;10.83;;;4.40;;
4391;SDS011;2210;51.938;8.488;2024-01-27T11:22:36;8.87;;;4.40;;
4391;SDS011;2210;51.938;8.488;2024-01-27T11:26:37;8.83;;;4.43;;
4391;SDS011;2210;51.938;8.488;2024-01-27T11:30:46;11.23;;;4.75;;
4391;SDS011;2210;51.938;8.488;2024-01-27T11:34:48;11.20;;;4.30;;
4391;SDS011;2210;51.938;8.488;2024-01-27T11:38:49;6.70;;;3.23;;
4391;SDS011;2210;51.938;8.488;2024-01-27T11:43:06;7.07;;;3.47;;
4391;SDS011;2210;51.938;8.488;2024-01-27T11:47:13;6.23;;;3.10;;
4391;SDS011;2210;51.938;8.488;2024-01-27T11:51:19;9.03;;;3.73;;
4391;SDS011;2210;51.938;8.488;2024-01-27T11:55:20;5.40;;;2.90;;
4391;SDS011;2210;51.938;8.488;2024-01-27T11:59:21;9.23;;;2.73;;
4391;SDS011;2210;51.938;8.488;2024-01-27T12:03:21;6.77;;;2.70;;
4391;SDS011;2210;51.938;8.488;2024-01-27T12:07:22;4.73;;;2.33;;
4391;SDS011;2210;51.938;8.488;2024-01-27T12:11:23;6.50;;;2.30;;
4391;SDS011;2210;51.938;8.488;2024-01-27T12:15:24;12.57;;;2.30;;
4391;SDS011;2210;51.938;8.488;2024-01-27T12:19:26;10.20;;;2.50;;
4391;SDS011;2210;51.938;8.488;2024-01-27T12:27:52;5.77;;;2.73;;
4391;SDS011;2210;51.938;8.488;2024-01-27T12:31:52;4.88;;;1.85;;
4391;SDS011;2210;51.938;8.488;2024-01-27T12:35:54;8.00;;;2.63;;
4391;SDS011;2210;51.938;8.488;2024-01-27T12:39:57;8.47;;;2.80;;
4391;SDS011;2210;51.938;8.488;2024-01-27T12:44:04;7.00;;;2.70;;
4391;SDS011;2210;51.938;8.488;2024-01-27T12:48:18;5.23;;;2.27;;
4391;SDS011;2210;51.938;8.488;2024-01-27T12:52:18;4.60;;;2.07;;
4391;SDS011;2210;51.938;8.488;2024-01-27T12:56:18;9.10;;;3.17;;
4391;SDS011;2210;51.938;8.488;2024-01-27T13:00:19;11.20;;;4.00;;
4391;SDS011;2210;51.938;8.488;2024-01-27T13:04:19;18.63;;;6.70;;
4391;SDS011;2210;51.938;8.488;2024-01-27T13:08:20;8.25;;;2.30;;
4391;SDS011;2210;51.938;8.488;2024-01-27T13:12:26;4.53;;;2.33;;
4391;SDS011;2210;51.938;8.488;2024-01-27T13:16:30;6.23;;;2.10;;
4391;SDS011;2210;51.938;8.488;2024-01-27T13:20:30;6.20;;;2.30;;
4391;SDS011;2210;51.938;8.488;2024-01-27T13:24:30;10.95;;;4.40;;
4391;SDS011;2210;51.938;8.488;2024-01-27T13:28:36;3.80;;;2.10;;
4391;SDS011;2210;51.938;8.488;2024-01-27T13:32:37;4.30;;;2.40;;
4391;SDS011;2210;51.938;8.488;2024-01-27T13:36:43;4.83;;;2.23;;
4391;SDS011;2210;51.938;8.488;2024-01-27T13:40:44;7.43;;;3.40;;
4391;SDS011;2210;51.938;8.488;2024-01-27T13:44:50;5.32;;;2.75;;
4391;SDS011;2210;51.938;8.488;2024-01-27T13:48:50;5.33;;;2.93;;
4391;SDS011;2210;51.938;8.488;2024-01-27T13:52:51;7.57;;;2.70;;
4391;SDS011;2210;51.938;8.488;2024-01-27T13:56:52;7.27;;;3.00;;
4391;SDS011;2210;51.938;8.488;2024-01-27T14:01:02;8.30;;;2.43;;
4391;SDS011;2210;51.938;8.488;2024-01-27T14:05:06;10.10;;;2.47;;
4391;SDS011;2210;51.938;8.488;2024-01-27T14:09:09;4.20;;;2.30;;
4391;SDS011;2210;51.938;8.488;2024-01-27T14:13:13;5.40;;;1.87;;
4391;SDS011;2210;51.938;8.488;2024-01-27T14:17:17;7.60;;;1.70;;
4391;SDS011;2210;51.938;8.488;2024-01-27T14:21:17;6.20;;;1.87;;
4391;SDS011;2210;51.938;8.488;2024-01-27T14:25:29;3.50;;;1.50;;
4391;SDS011;2210;51.938;8.488;2024-01-27T14:29:29;2.43;;;1.33;;
4391;SDS011;2210;51.938;8.488;2024-01-27T14:33:30;3.37;;;2.33;;
4391;SDS011;2210;51.938;8.488;2024-01-27T14:37:30;4.07;;;1.42;;
4391;SDS011;2210;51.938;8.488;2024-01-27T14:41:30;4.43;;;1.87;;
4391;SDS011;2210;51.938;8.488;2024-01-27T14:45:31;3.00;;;1.90;;
4391;SDS011;2210;51.938;8.488;2024-01-27T14:49:40;4.07;;;2.70;;
4391;SDS011;2210;51.938;8.488;2024-01-27T14:53:49;8.03;;;1.87;;
4391;SDS011;2210;51.938;8.488;2024-01-27T14:57:50;6.57;;;1.87;;
4391;SDS011;2210;51.938;8.488;2024-01-27T15:01:54;7.33;;;1.90;;
4391;SDS011;2210;51.938;8.488;2024-01-27T15:06:03;6.87;;;2.53;;
4391;SDS011;2210;51.938;8.488;2024-01-27T15:10:04;4.13;;;1.80;;
4391;SDS011;2210;51.938;8.488;2024-01-27T15:14:05;5.20;;;3.00;;
4391;SDS011;2210;51.938;8.488;2024-01-27T15:18:06;4.20;;;2.17;;
4391;SDS011;2210;51.938;8.488;2024-01-27T15:22:07;6.13;;;2.00;;
4391;SDS011;2210;51.938;8.488;2024-01-27T15:26:17;6.53;;;1.50;;
4391;SDS011;2210;51.938;8.488;2024-01-27T15:30:18;6.50;;;1.60;;
4391;SDS011;2210;51.938;8.488;2024-01-27T15:34:18;8.05;;;2.50;;
4391;SDS011;2210;51.938;8.488;2024-01-27T15:38:24;10.37;;;2.70;;
4391;SDS011;2210;51.938;8.488;2024-01-27T15:42:24;2.33;;;1.60;;
4391;SDS011;2210;51.938;8.488;2024-01-27T15:46:25;6.50;;;1.67;;
4391;SDS011;2210;51.938;8.488;2024-01-27T15:50:25;8.57;;;2.17;;
4391;SDS011;2210;51.938;8.488;2024-01-27T15:54:31;6.70;;;1.83;;
4391;SDS011;2210;51.938;8.488;2024-01-27T15:58:31;6.33;;;2.63;;
4391;SDS011;2210;51.938;8.488;2024-01-27T16:02:34;3.33;;;1.70;;
4391;SDS011;2210;51.938;8.488;2024-01-27T16:06:35;5.50;;;2.27;;
4391;SDS011;2210;51.938;8.488;2024-01-27T16:10:35;3.00;;;2.07;;
4391;SDS011;2210;51.938;8.488;2024-01-27T16:14:36;4.07;;;2.10;;
4391;SDS011;2210;51.938;8.488;2024-01-27T16:18:36;8.70;;;2.20;;
4391;SDS011;2210;51.938;8.488;2024-01-27T16:22:36;6.90;;;2.57;;
4391;SDS011;2210;51.938;8.488;2024-01-27T16:26:37;6.77;;;3.00;;
4391;SDS011;2210;51.938;8.488;2024-01-27T16:30:37;4.37;;;2.07;;
4391;SDS011;2210;51.938;8.488;2024-01-27T16:34:38;8.90;;;4.10;;
4391;SDS011;2210;51.938;8.488;2024-01-27T16:38:38;5.97;;;3.43;;
4391;SDS011;2210;51.938;8.488;2024-01-27T16:42:39;6.63;;;3.63;;
4391;SDS011;2210;51.938;8.488;2024-01-27T16:46:43;9.93;;;4.35;;
4391;SDS011;2210;51.938;8.488;2024-01-27T16:50:49;8.23;;;3.47;;
4391;SDS011;2210;51.938;8.488;2024-01-27T16:54:49;6.50;;;3.60;;
4391;SDS011;2210;51.938;8.488;2024-01-27T16:58:52;8.93;;;3.22;;
4391;SDS011;2210;51.938;8.488;2024-01-27T17:02:52;2.90;;;2.30;;
4391;SDS011;2210;51.938;8.488;2024-01-27T17:11:26;6.50;;;3.87;;
4391;SDS011;2210;51.938;8.488;2024-01-27T17:15:39;6.83;;;3.17;;
4391;SDS011;2210;51.938;8.488;2024-01-27T17:19:41;8.00;;;5.40;;
4391;SDS011;2210;51.938;8.488;2024-01-27T17:23:41;6.57;;;4.05;;
4391;SDS011;2210;51.938;8.488;2024-01-27T17:27:47;9.68;;;4.45;;
4391;SDS011;2210;51.938;8.488;2024-01-27T17:31:48;12.90;;;4.60;;
4391;SDS011;2210;51.938;8.488;2024-01-27T17:35:48;8.23;;;4.37;;
4391;SDS011;2210;51.938;8.488;2024-01-27T17:39:49;11.50;;;5.50;;
4391;SDS011;2210;51.938;8.488;2024-01-27T17:43:49;5.43;;;3.40;;
4391;SDS011;2210;51.938;8.488;2024-01-27T17:47:50;5.90;;;3.50;;
4391;SDS011;2210;51.938;8.488;2024-01-27T17:51:55;11.30;;;3.67;;
4391;SDS011;2210;51.938;8.488;2024-01-27T17:55:59;5.93;;;3.10;;
4391;SDS011;2210;51.938;8.488;2024-01-27T18:00:03;2.50;;;2.30;;
4391;SDS011;2210;51.938;8.488;2024-01-27T18:04:10;9.57;;;4.13;;
4391;SDS011;2210;51.938;8.488;2024-01-27T18:08:10;2.83;;;2.37;;
4391;SDS011;2210;51.938;8.488;2024-01-27T18:12:11;6.20;;;2.53;;
4391;SDS011;2210;51.938;8.488;2024-01-27T18:16:14;8.60;;;2.85;;
4391;SDS011;2210;51.938;8.488;2024-01-27T18:20:14;8.30;;;3.83;;
4391;SDS011;2210;51.938;8.488;2024-01-27T18:24:14;6.27;;;2.83;;
4391;SDS011;2210;51.938;8.488;2024-01-27T18:28:32;4.80;;;2.60;;
4391;SDS011;2210;51.938;8.488;2024-01-27T18:32:36;4.93;;;3.40;;
4391;SDS011;2210;51.938;8.488;2024-01-27T18:36:36;6.10;;;3.17;;
4391;SDS011;2210;51.938;8.488;2024-01-27T18:40:39;17.97;;;9.60;;
4391;SDS011;2210;51.938;8.488;2024-01-27T18:44:49;12.57;;;7.63;;
4391;SDS011;2210;51.938;8.488;2024-01-27T18:48:49;13.37;;;8.70;;
4391;SDS011;2210;51.938;8.488;2024-01-27T18:52:49;12.77;;;6.97;;
4391;SDS011;2210;51.938;8.488;2024-01-27T18:56:56;9.60;;;5.83;;
4391;SDS011;2210;51.938;8.488;2024-01-27T19:00:58;10.30;;;5.23;;
4391;SDS011;2210;51.938;8.488;2024-01-27T19:05:07;8.33;;;5.50;;
4391;SDS011;2210;51.938;8.488;2024-01-27T19:09:16;6.53;;;4.30;;
4391;SDS011;2210;51.938;8.488;2024-01-27T19:13:20;8.40;;;5.40;;
4391;SDS011;2210;51.938;8.488;2024-01-27T19:17:32;11.33;;;5.80;;
4391;SDS011;2210;51.938;8.488;2024-01-27T19:21:45;9.17;;;5.80;;
4391;SDS011;2210;51.938;8.488;2024-01-27T19:25:48;17.10;;;8.47;;
4391;SDS011;2210;51.938;8.488;2024-01-27T19:29:48;18.57;;;8.80;;
4391;SDS011;2210;51.938;8.488;2024-01-27T19:33:48;9.93;;;6.30;;
4391;SDS011;2210;51.938;8.488;2024-01-27T19:37:49;9.97;;;6.60;;
4391;SDS011;2210;51.938;8.488;2024-01-27T19:41:49;16.30;;;7.20;;
4391;SDS011;2210;51.938;8.488;2024-01-27T19:45:52;14.77;;;7.90;;
4391;SDS011;2210;51.938;8.488;2024-01-27T19:50:02;10.93;;;6.90;;
4391;SDS011;2210;51.938;8.488;2024-01-27T19:54:05;16.33;;;6.67;;
4391;SDS011;2210;51.938;8.488;2024-01-27T19:58:05;8.33;;;5.80;;
4391;SDS011;2210;51.938;8.488;2024-01-27T20:02:09;9.90;;;5.70;;
4391;SDS011;2210;51.938;8.488;2024-01-27T20:06:12;10.17;;;6.00;;
4391;SDS011;2210;51.938;8.488;2024-01-27T20:10:19;6.87;;;5.30;;
4391;SDS011;2210;51.938;8.488;2024-01-27T20:14:19;10.53;;;5.70;;
4391;SDS011;2210;51.938;8.488;2024-01-27T20:18:20;10.53;;;5.97;;
4391;SDS011;2210;51.938;8.488;2024-01-27T20:22:20;8.30;;;5.10;;
4391;SDS011;2210;51.938;8.488;2024-01-27T20:26:23;7.53;;;5.60;;
4391;SDS011;2210;51.938;8.488;2024-01-27T20:30:23;9.10;;;6.10;;
4391;SDS011;2210;51.938;8.488;2024-01-27T20:34:24;7.10;;;5.07;;
4391;SDS011;2210;51.938;8.488;2024-01-27T20:38:27;7.37;;;4.87;;
4391;SDS011;2210;51.938;8.488;2024-01-27T20:42:28;9.97;;;5.00;;
4391;SDS011;2210;51.938;8.488;2024-01-27T20:46:28;8.97;;;5.43;;
4391;SDS011;2210;51.938;8.488;2024-01-27T20:50:29;9.73;;;4.60;;
4391;SDS011;2210;51.938;8.488;2024-01-27T20:54:29;8.97;;;5.20;;
4391;SDS011;2210;51.938;8.488;2024-01-27T20:58:29;8.60;;;4.70;;
4391;SDS011;2210;51.938;8.488;2024-01-27T21:02:47;8.87;;;4.50;;
4391;SDS011;2210;51.938;8.488;2024-01-27T21:06:48;8.87;;;4.80;;
4391;SDS011;2210;51.938;8.488;2024-01-27T21:10:48;9.75;;;5.88;;
4391;SDS011;2210;51.938;8.488;2024-01-27T21:14:51;7.47;;;5.30;;
4391;SDS011;2210;51.938;8.488;2024-01-27T21:18:57;8.27;;;5.73;;
4391;SDS011;2210;51.938;8.488;2024-01-27T21:23:00;9.60;;;5.40;;
4391;SDS011;2210;51.938;8.488;2024-01-27T21:27:04;8.50;;;5.57;;
4391;SDS011;2210;51.938;8.488;2024-01-27T21:31:05;6.37;;;5.00;;
4391;SDS011;2210;51.938;8.488;2024-01-27T21:35:05;7.57;;;4.90;;
4391;SDS011;2210;51.938;8.488;2024-01-27T21:39:05;9.60;;;5.03;;
4391;SDS011;2210;51.938;8.488;2024-01-27T21:43:15;14.13;;;5.35;;
4391;SDS011;2210;51.938;8.488;2024-01-27T21:47:15;16.40;;;4.90;;
4391;SDS011;2210;51.938;8.488;2024-01-27T21:51:25;7.33;;;4.30;;
4391;SDS011;2210;51.938;8.488;2024-01-27T21:55:25;6.90;;;4.00;;
4391;SDS011;2210;51.938;8.488;2024-01-27T21:59:25;5.33;;;3.60;;
4391;SDS011;2210;51.938;8.488;2024-01-27T22:03:26;5.70;;;3.30;;
4391;SDS011;2210;51.938;8.488;2024-01-27T22:07:36;6.90;;;4.43;;
4391;SDS011;2210;51.938;8.488;2024-01-27T22:11:36;6.97;;;4.10;;
4391;SDS011;2210;51.938;8.488;2024-01-27T22:15:37;5.97;;;3.53;;
4391;SDS011;2210;51.938;8.488;2024-01-27T22:19:48;6.30;;;3.57;;
4391;SDS011;2210;51.938;8.488;2024-01-27T22:23:48;10.43;;;3.53;;
4391;SDS011;2210;51.938;8.488;2024-01-27T22:27:51;15.73;;;3.47;;
4391;SDS011;2210;51.938;8.488;2024-01-27T22:31:52;6.30;;;3.90;;
4391;SDS011;2210;51.938;8.488;2024-01-27T22:36:01;4.80;;;3.70;;
4391;SDS011;2210;51.938;8.488;2024-01-27T22:40:13;5.63;;;4.00;;
4391;SDS011;2210;51.938;8.488;2024-01-27T22:44:14;4.93;;;3.10;;
4391;SDS011;2210;51.938;8.488;2024-01-27T22:48:14;5.93;;;3.67;;
4391;SDS011;2210;51.938;8.488;2024-01-27T22:52:17;6.63;;;3.40;;
4391;SDS011;2210;51.938;8.488;2024-01-27T22:56:18;5.33;;;3.00;;
4391;SDS011;2210;51.938;8.488;2024-01-27T23:00:20;5.27;;;3.37;;
4391;SDS011;2210;51.938;8.488;2024-01-27T23:04:36;8.57;;;3.30;;
4391;SDS011;2210;51.938;8.488;2024-01-27T23:08:36;6.50;;;3.87;;
4391;SDS011;2210;51.938;8.488;2024-01-27T23:17:06;5.70;;;3.03;;
4391;SDS011;2210;51.938;8.488;2024-01-27T23:21:06;11.10;;;3.20;;
4391;SDS011;2210;51.938;8.488;2024-01-27T23:25:09;3.83;;;2.65;;
4391;SDS011;2210;51.938;8.488;2024-01-27T23:29:10;4.93;;;3.33;;
4391;SDS011;2210;51.938;8.488;2024-01-27T23:33:13;7.20;;;3.57;;
4391;SDS011;2210;51.938;8.488;2024-01-27T23:37:23;6.73;;;2.50;;
4391;SDS011;2210;51.938;8.488;2024-01-27T23:41:23;4.33;;;2.83;;
4391;SDS011;2210;51.938;8.488;2024-01-27T23:45:34;4.00;;;2.93;;
4391;SDS011;2210;51.938;8.488;2024-01-27T23:49:37;3.80;;;2.60;;
4391;SDS011;2210;51.938;8.488;2024-01-27T23:53:37;4.40;;;2.53;;
4391;SDS011;2210;51.938;8.488;2024-01-27T23:57:48;4.87;;;3.27;;
